• Join FlightAware (Why Join?)
  • Login
  • US Flag 
09:19AM EST


 

Airport Tracker/Info


-or-


 

Live Flight TrackerFlight Track Log ✈ UPS1337 ✈ 21-Feb-2014 ✈ KPIE - KRDU

Flight Track Log - Related Links

Times and Time Zones

All times are in EST time to prevent confusion due to time zone crossing. See the UPS1337 flight status page for this flight to view local times or setup timezone preferences in your user account.

Time Position Orientation Groundspeed Altitude Reporting Facility
EST Latitude Longitude Course Direction KTS MPH feet Rate Location/Type
09:47PM 27.9000 -82.6833 180° South 164 189 1,000  Level Tampa TRACON
09:47PM 27.8833 -82.6833 180° South 167 192 2,100 2,846 Climbing Tampa TRACON
09:48PM 27.8167 -82.6833 180° South 265 305 4,700 2,950 Climbing Tampa TRACON
09:49PM 27.8167 -82.7500 270° West 291 335 8,000 2,625 Climbing Tampa TRACON
09:55PM 28.4245 -82.6837 270° West 452 520 22,200 2,450 Climbing FlightAware ADS-B
09:56PM 28.4746 -82.6739 10° North 457 526 23,600 2,083 Climbing FlightAware ADS-B
09:56PM 28.5802 -82.6502 11° North 474 545 24,700 2,066 Climbing FlightAware ADS-B
09:57PM 28.6475 -82.6343 12° North 480 552 25,700 1,311 Climbing FlightAware ADS-B
09:58PM 28.8434 -82.6229 North 493 567 27,300 1,636 Climbing FlightAware ADS-B
09:59PM 29.0164 -82.6158 North 488 562 30,200 2,075 Climbing FlightAware ADS-B
10:00PM 29.1464 -82.6107 North 486 559 31,900 611 Climbing FlightAware ADS-B
10:03PM 29.5194 -82.5955 North 487 560 32,500 514 Climbing FlightAware ADS-B
10:04PM 29.6233 -82.5909 North 484 557 33,700 1,650 Climbing FlightAware ADS-B
10:05PM 29.7127 -82.5872 North 483 556 34,700 1,114 Climbing FlightAware ADS-B
10:05PM 29.7768 -82.5848 North 486 559 35,000 300 Climbing FlightAware ADS-B
10:06PM 29.8483 -82.5819 North 484 557 35,000  Level FlightAware ADS-B
10:06PM 29.9168 -82.5790 North 481 554 35,000  Level FlightAware ADS-B
10:07PM 30.0273 -82.5743 North 479 551 35,000  Level FlightAware ADS-B
10:07PM 30.0952 -82.5713 North 479 551 35,000  Level FlightAware ADS-B
10:08PM 30.1612 -82.5684 North 478 550 35,000  Level FlightAware ADS-B
10:08PM 30.2283 -82.5656 North 478 550 35,000  Level FlightAware ADS-B
10:09PM 30.3031 -82.5625 North 479 551 35,000  Level FlightAware ADS-B
10:10PM 30.3815 -82.5592 North 482 555 35,000  Level FlightAware ADS-B
10:10PM 30.4749 -82.5514 North 491 565 35,000  Level FlightAware ADS-B
10:11PM 30.5460 -82.5350 11° North 499 574 35,000  Level FlightAware ADS-B
10:12PM 30.6939 -82.4819 11° North 484 557 35,000  Level Jacksonville Center
10:13PM 30.8272 -82.4281 19° North 490 564 35,000 -50 Level Jacksonville Center
10:14PM 30.9564 -82.3619 24° Northeast 501 577 34,900  Descending Jacksonville Center
10:15PM 31.0814 -82.2886 27° Northeast 501 577 35,000 50 Climbing Jacksonville Center
10:16PM 31.2086 -82.2172 26° Northeast 501 577 35,000  Level Jacksonville Center
10:17PM 31.3375 -82.1408 27° Northeast 508 585 35,000 -50 Level Jacksonville Center
10:18PM 31.4644 -82.0694 26° Northeast 508 585 34,900  Descending Jacksonville Center
10:19PM 31.6036 -81.9853 27° Northeast 500 575 35,000 50 Climbing Jacksonville Center
10:20PM 31.7181 -81.9206 26° Northeast 505 581 35,000  Level Jacksonville Center
10:21PM 31.8614 -81.8358 27° Northeast 505 581 35,000  Level Jacksonville Center
10:22PM 31.9883 -81.7633 26° Northeast 505 581 35,000  Level Jacksonville Center
10:23PM 32.1044 -81.6933 27° Northeast 510 587 35,000  Level Jacksonville Center
10:24PM 32.2478 -81.6128 25° Northeast 504 580 35,000  Level Jacksonville Center
10:25PM 32.3783 -81.5347 27° Northeast 510 587 35,000  Level Jacksonville Center
10:26PM 32.4947 -81.4639 27° Northeast 505 581 35,000 -250 Level Jacksonville Center
10:27PM 32.6356 -81.3803 27° Northeast 506 582 34,500 -992 Descending Jacksonville Center
10:28PM 32.7475 -81.3119 27° Northeast 506 582 33,000 -750 Descending Jacksonville Center
10:29PM 32.8758 -81.2353 27° Northeast 506 582 33,000  Level Jacksonville Center
10:30PM 33.0083 -81.1561 27° Northeast 512 589 33,000  Level Jacksonville Center
10:31PM 33.1389 -81.0767 27° Northeast 512 589 33,000  Level Jacksonville Center
10:32PM 33.2692 -80.9994 26° Northeast 512 589 33,000  Level Jacksonville Center
10:33PM 33.4017 -80.9219 26° Northeast 512 589 33,000  Level Jacksonville Center
10:34PM 33.5419 -80.8342 28° Northeast 517 595 33,000 -1,100 Level Jacksonville Center
10:35PM 33.6722 -80.7514 28° Northeast 517 595 30,800 -2,450 Descending Jacksonville Center
10:36PM 33.8000 -80.6683 28° Northeast 517 595 28,100 -1,950 Descending Jacksonville Center
10:37PM 33.9258 -80.5875 28° Northeast 517 595 26,900 -1,100 Descending Jacksonville Center
10:38PM 34.0536 -80.5039 28° Northeast 510 587 25,900 -992 Descending Jacksonville Center
10:39PM 34.1836 -80.4225 27° Northeast 510 587 24,900 -1,000 Descending Jacksonville Center
10:40PM 34.3092 -80.3411 28° Northeast 510 587 23,900 -713 Descending Jacksonville Center
10:42PM 34.5033 -80.2289 25° Northeast 473 544 23,000 -340 Descending Washington Center
10:43PM 34.6250 -80.1550 27° Northeast 479 551 23,000  Level Washington Center
10:44PM 34.7553 -80.0764 26° Northeast 493 567 23,000  Level Washington Center
10:45PM 34.8808 -79.9567 38° Northeast 517 595 23,000 -400 Level Washington Center
10:46PM 34.9872 -79.8383 42° Northeast 517 595 22,200 -1,900 Descending Washington Center
10:47PM 35.0936 -79.7219 42° Northeast 512 589 19,200 -3,000 Descending Washington Center
10:48PM 35.1911 -79.6153 42° Northeast 481 554 16,200 -3,000 Descending Washington Center
10:48PM 35.2150 -79.5936 37° Northeast 481 554 15,300 -3,000 Descending Washington Center
10:48PM 35.2469 -79.5672 34° Northeast 459 528 14,400 -2,651 Descending Washington Center
10:49PM 35.2833 -79.5411 30° Northeast 452 520 13,400 -2,951 Descending Washington Center
10:49PM 35.3603 -79.4886 29° Northeast 417 480 11,400 -2,379 Descending Washington Center
10:50PM 35.3967 -79.4600 33° Northeast 430 495 11,100 -295 Descending Washington Center
10:50PM 35.4606 -79.4172 29° Northeast 426 490 11,100  Level Washington Center
10:51PM 35.4883 -79.3981 29° Northeast 423 487 11,100  Level Washington Center
10:51PM 35.5431 -79.3214 49° Northeast 416 479 11,100  Level Washington Center
10:52PM 35.5692 -79.2819 51° Northeast 403 464 11,100 -100 Level Washington Center
10:52PM 35.6044 -79.2247 53° Northeast 343 395 11,000 -102 Descending Washington Center
10:53PM 35.6264 -79.1875 54° Northeast 365 420 11,000  Level Washington Center
10:53PM 35.6633 -79.1328 50° Northeast 334 384 11,000  Level Washington Center
10:54PM 35.6789 -79.1028 57° Northeast 344 396 11,000  Level Washington Center
10:54PM 35.7206 -79.0356 53° Northeast 342 394 11,000  Level Washington Center
10:55PM 35.7425 -79.0008 52° Northeast 337 388 11,000 -103 Level Washington Center
10:55PM 35.7775 -78.9433 53° Northeast 344 396 10,900 -787 Descending Washington Center
10:56PM 35.8072 -78.9189 34° Northeast 337 388 10,200 -1,770 Descending Washington Center
10:56PM 35.8583 -78.8853 28° Northeast 337 388 9,100 -1,574 Descending Washington Center
10:57PM 35.8903 -78.8636 29° Northeast 328 377 8,600 -1,100 Descending Washington Center
10:57PM 35.9369 -78.8372 25° Northeast 311 358 8,000 -1,000 Descending Washington Center
10:58PM 35.9625 -78.8178 32° Northeast 312 359 7,600 -1,082 Descending Washington Center
10:58PM 36.0047 -78.7939 25° Northeast 245 282 6,900 -1,620 Descending Washington Center
10:59PM 36.0606 -78.7394 38° Northeast 231 266 4,900 -1,983 Descending Washington Center
11:00PM 36.0581 -78.6700 93° East 235 270 2,900 -1,461 Descending Washington Center
11:01PM 36.0150 -78.6400 151° Southeast 218 251 2,100 -470 Descending Washington Center
11:02PM 35.9722 -78.6822 219° Southwest 175 201 2,000 -148 Descending Washington Center
11:03PM 35.9419 -78.7219 227° Southwest 153 176 1,800 -469 Descending Washington Center
11:04PM 35.9139 -78.7542 223° Southwest 123 142 1,000 -716 Descending Washington Center
11:06PM 35.8776 -78.7875 207° Southwest  Level Estimated
11:13PM 35.8776 -78.7875 207° Southwest  Level Estimated
11:14PM 35.8776 -78.7875 207° Southwest  Level Estimated